createdAt,value
2022-10-01T00:02:15.761Z,98600.28
2022-10-01T00:04:44.377Z,98606.03
2022-10-01T00:07:15.411Z,98604.06
2022-10-01T00:09:44.194Z,98605.78
2022-10-01T00:12:16.001Z,98605.31
2022-10-01T00:14:46.055Z,98609.72
2022-10-01T00:17:14.682Z,98601.25
2022-10-01T00:19:43.322Z,98591.25
2022-10-01T00:22:12.055Z,98593.78
2022-10-01T00:24:40.955Z,98592.72
2022-10-01T00:27:11.007Z,98596.44
2022-10-01T00:29:39.694Z,98598.53
2022-10-01T00:32:10.048Z,98597.13
2022-10-01T00:34:38.723Z,98594.59
2022-10-01T00:37:09.659Z,98594.59
2022-10-01T00:39:38.662Z,98587.88
2022-10-01T00:42:19.640Z,98590.81
2022-10-01T00:44:49.345Z,98602.75
2022-10-01T00:47:30.358Z,98583.28
2022-10-01T00:50:08.494Z,98579.34
2022-10-01T00:52:42.713Z,98585.97
2022-10-01T00:55:18.276Z,98588.16
2022-10-01T00:57:47.291Z,98577.34
2022-10-01T01:00:16.716Z,98579.44
2022-10-01T01:02:47.125Z,98577.69
2022-10-01T01:05:16.165Z,98570.16
2022-10-01T01:07:50.004Z,98570.34
2022-10-01T01:10:29.940Z,98579.63
2022-10-01T01:13:18.167Z,98581.47
2022-10-01T01:15:57.631Z,98584.22
2022-10-01T01:18:36.568Z,98579.63
2022-10-01T01:21:23.092Z,98564.22
2022-10-01T01:24:39.556Z,98557.94
2022-10-01T01:27:29.088Z,98564.16
2022-10-01T01:30:06.159Z,98557.94
2022-10-01T01:32:49.177Z,98552.75
2022-10-01T01:35:32.324Z,98541.28
2022-10-01T01:38:09.404Z,98546.72
2022-10-01T01:40:43.622Z,98543.25
2022-10-01T01:43:20.653Z,98540.09
2022-10-01T01:45:55.353Z,98537.06
2022-10-01T01:48:25.764Z,98534.63
2022-10-01T01:51:04.181Z,98536.69
2022-10-01T01:53:34.143Z,98539.06
2022-10-01T01:56:03.399Z,98532.72
2022-10-01T01:58:35.849Z,98534.72
2022-10-01T02:01:06.709Z,98535.69
2022-10-01T02:03:36.755Z,98536.72
2022-10-01T02:06:21.561Z,98530.00
2022-10-01T02:08:59.442Z,98534.06
2022-10-01T02:11:37.031Z,98537.03
2022-10-01T02:14:22.447Z,98522.28
2022-10-01T02:17:02.166Z,98521.06
2022-10-01T02:19:43.376Z,98518.81
2022-10-01T02:22:18.880Z,98521.56
2022-10-01T02:24:57.129Z,98515.00
2022-10-01T02:27:32.386Z,98515.56
2022-10-01T02:30:07.976Z,98516.47
2022-10-01T02:32:44.706Z,98512.63
2022-10-01T02:35:17.908Z,98506.69
2022-10-01T02:37:52.865Z,98519.63
2022-10-01T02:40:27.020Z,98508.31
2022-10-01T02:43:01.378Z,98502.25
2022-10-01T02:45:35.607Z,98504.78
2022-10-01T02:48:10.089Z,98507.28
2022-10-01T02:50:45.592Z,98499.44
2022-10-01T02:53:23.759Z,98495.03
2022-10-01T02:55:54.196Z,98500.00
2022-10-01T02:58:22.478Z,98496.13
2022-10-01T03:00:51.361Z,98500.00
2022-10-01T03:03:21.533Z,98492.34
2022-10-01T03:05:50.358Z,98496.06
2022-10-01T03:08:19.521Z,98499.19
2022-10-01T03:10:48.309Z,98499.69
2022-10-01T03:13:18.625Z,98494.75
2022-10-01T03:15:48.240Z,98488.22
2022-10-01T03:18:16.933Z,98483.50
2022-10-01T03:20:49.619Z,98489.84
2022-10-01T03:23:18.240Z,98489.84
2022-10-01T03:25:46.911Z,98492.75
2022-10-01T03:28:15.688Z,98500.13
2022-10-01T03:30:45.465Z,98493.97
2022-10-01T03:33:14.142Z,98490.31
2022-10-01T03:35:42.872Z,98494.78
2022-10-01T03:38:13.866Z,98494.78
2022-10-01T03:40:42.559Z,98493.31
2022-10-01T03:43:12.303Z,98486.81
2022-10-01T03:45:41.009Z,98493.56
2022-10-01T03:48:10.044Z,98489.69
2022-10-01T03:50:38.745Z,98488.09
2022-10-01T03:53:07.849Z,98489.47
2022-10-01T03:55:37.850Z,98484.38
2022-10-01T03:58:07.085Z,98487.19
2022-10-01T04:00:35.724Z,98486.00
2022-10-01T04:03:04.350Z,98477.59
2022-10-01T04:05:33.013Z,98475.50
2022-10-01T04:08:02.294Z,98465.00
2022-10-01T04:10:30.901Z,98459.84
2022-10-01T04:13:01.350Z,98459.84
2022-10-01T04:15:30.100Z,98455.56
2022-10-01T04:17:58.772Z,98455.69
2022-10-01T04:20:27.682Z,98456.03
2022-10-01T04:22:56.255Z,98449.09
2022-10-01T04:25:24.877Z,98456.13
2022-10-01T04:28:01.469Z,98455.97
2022-10-01T04:30:34.241Z,98456.13
2022-10-01T04:33:03.275Z,98454.81
2022-10-01T04:35:32.186Z,98460.31
2022-10-01T04:38:03.468Z,98452.56
2022-10-01T04:40:34.602Z,98462.63
2022-10-01T04:43:06.624Z,98451.38
2022-10-01T04:45:35.433Z,98454.34
2022-10-01T04:48:05.129Z,98458.47
2022-10-01T04:50:34.577Z,98452.81
2022-10-01T04:53:03.205Z,98448.88
2022-10-01T04:55:31.983Z,98444.97
2022-10-01T04:58:00.845Z,98441.59
2022-10-01T05:00:30.811Z,98446.94
2022-10-01T05:02:59.743Z,98441.97
2022-10-01T05:05:29.306Z,98442.47
2022-10-01T05:07:57.991Z,98439.81
2022-10-01T05:10:27.643Z,98443.50
2022-10-01T05:12:56.870Z,98432.84
2022-10-01T05:15:25.646Z,98438.19
2022-10-01T05:17:56.147Z,98433.56
2022-10-01T05:20:27.136Z,98438.09
2022-10-01T05:22:56.996Z,98445.41
2022-10-01T05:25:25.902Z,98443.31
2022-10-01T05:27:54.531Z,98443.47
2022-10-01T05:30:24.190Z,98440.34
2022-10-01T05:33:01.355Z,98444.06
2022-10-01T05:35:31.499Z,98437.22
2022-10-01T05:38:03.969Z,98429.59
2022-10-01T05:40:33.286Z,98424.97
2022-10-01T05:43:07.916Z,98427.41
2022-10-01T05:45:38.058Z,98424.44
2022-10-01T05:48:12.914Z,98423.38
2022-10-01T05:50:52.113Z,98424.44
2022-10-01T05:53:25.162Z,98419.81
2022-10-01T05:55:53.966Z,98421.41
2022-10-01T05:58:22.541Z,98424.66
2022-10-01T06:00:51.571Z,98422.13
2022-10-01T06:03:22.198Z,98421.69
2022-10-01T06:05:55.346Z,98414.81
2022-10-01T06:08:24.612Z,98416.56
2022-10-01T06:10:59.895Z,98401.75
2022-10-01T06:13:29.485Z,98406.16
2022-10-01T06:16:15.223Z,98399.88
2022-10-01T06:18:45.493Z,98391.66
2022-10-01T06:21:14.152Z,98388.28
2022-10-01T06:23:44.408Z,98375.41
2022-10-01T06:26:13.452Z,98379.47
2022-10-01T06:28:42.535Z,98380.16
2022-10-01T06:31:11.724Z,98369.59
2022-10-01T06:33:40.538Z,98367.06
2022-10-01T06:36:11.512Z,98370.41
2022-10-01T06:38:40.376Z,98371.56
2022-10-01T06:41:09.212Z,98361.56
2022-10-01T06:43:38.139Z,98359.00
2022-10-01T06:46:08.082Z,98360.94
2022-10-01T06:48:50.456Z,98352.22
2022-10-01T06:51:41.588Z,98354.44
2022-10-01T06:54:14.651Z,98351.81
2022-10-01T06:56:43.351Z,98349.50
2022-10-01T06:59:12.451Z,98336.50
2022-10-01T07:01:41.710Z,98337.63
2022-10-01T07:04:10.829Z,98328.09
2022-10-01T07:06:45.903Z,98326.78
2022-10-01T07:09:16.219Z,98323.66
2022-10-01T07:11:46.543Z,98327.69
2022-10-01T07:14:15.579Z,98321.63
2022-10-01T07:16:44.361Z,98319.31
2022-10-01T07:19:14.248Z,98313.00
2022-10-01T07:21:46.971Z,98308.75
2022-10-01T07:24:15.805Z,98317.47
2022-10-01T07:26:44.579Z,98315.09
2022-10-01T07:29:13.341Z,98313.81
2022-10-01T07:31:42.304Z,98301.00
2022-10-01T07:34:11.427Z,98305.84
2022-10-01T07:36:45.662Z,98298.16
2022-10-01T07:39:16.081Z,98296.31
2022-10-01T07:41:45.297Z,98294.78
2022-10-01T07:44:14.000Z,98296.94
2022-10-01T07:46:42.838Z,98292.72
2022-10-01T07:49:13.004Z,98291.75
2022-10-01T07:52:03.651Z,98292.38
2022-10-01T07:54:34.929Z,98287.66
2022-10-01T07:57:35.502Z,98287.31
2022-10-01T08:00:08.649Z,98278.88
2022-10-01T08:02:41.843Z,98276.91
2022-10-01T08:05:25.462Z,98268.69
2022-10-01T08:07:55.277Z,98270.19
2022-10-01T08:10:25.373Z,98272.41
2022-10-01T08:13:00.762Z,98275.16
2022-10-01T08:15:53.026Z,98263.44
2022-10-01T08:18:24.058Z,98259.22
2022-10-01T08:21:05.289Z,98256.81
2022-10-01T08:23:38.149Z,98254.72
2022-10-01T08:26:15.235Z,98255.78
2022-10-01T08:28:44.626Z,98244.75
2022-10-01T08:31:25.788Z,98249.63
2022-10-01T08:34:03.337Z,98241.09
2022-10-01T08:36:38.321Z,98235.78
2022-10-01T08:39:24.782Z,98242.25
2022-10-01T08:42:17.955Z,98239.06
2022-10-01T08:44:50.281Z,98240.72
2022-10-01T08:47:37.331Z,98240.78
2022-10-01T08:50:21.407Z,98234.13
2022-10-01T08:52:59.325Z,98231.81
2022-10-01T08:55:36.642Z,98227.84
2022-10-01T08:58:13.637Z,98223.06
2022-10-01T09:00:47.898Z,98222.03
2022-10-01T09:03:19.291Z,98218.28
2022-10-01T09:06:16.762Z,98206.53
2022-10-01T09:09:23.864Z,98213.25
2022-10-01T09:12:21.155Z,98200.13
2022-10-01T09:15:19.428Z,98193.97
2022-10-01T09:18:05.399Z,98193.97
2022-10-01T09:20:40.992Z,98193.50
2022-10-01T09:23:25.561Z,98187.13
2022-10-01T09:26:34.319Z,98175.38
2022-10-01T09:29:06.825Z,98170.59
2022-10-01T09:31:45.646Z,98165.81
2022-10-01T09:34:33.934Z,98155.41
2022-10-01T09:37:18.806Z,98148.72
2022-10-01T09:40:03.403Z,98151.44
2022-10-01T09:42:32.983Z,98138.84
2022-10-01T09:45:02.317Z,98136.16
2022-10-01T09:47:35.090Z,98130.28
2022-10-01T09:50:25.852Z,98122.75
2022-10-01T09:53:02.940Z,98117.13
2022-10-01T09:55:42.599Z,98110.69
2022-10-01T09:58:18.639Z,98103.44
2022-10-01T10:00:55.423Z,98110.69
2022-10-01T10:03:33.666Z,98117.16
2022-10-01T10:06:04.547Z,98101.56
2022-10-01T10:08:42.893Z,98106.94
2022-10-01T10:11:24.437Z,98108.53
2022-10-01T10:14:03.738Z,98105.31
2022-10-01T10:16:38.798Z,98099.94
2022-10-01T10:19:22.832Z,98108.53
2022-10-01T10:21:56.755Z,98108.25
2022-10-01T10:24:32.845Z,98106.13
2022-10-01T10:27:46.113Z,98097.78
2022-10-01T10:30:39.100Z,98108.53
2022-10-01T10:33:08.398Z,98106.69
2022-10-01T10:35:42.966Z,98112.28
2022-10-01T10:38:20.909Z,98119.28
2022-10-01T10:40:55.356Z,98112.28
2022-10-01T10:43:30.465Z,98120.09
2022-10-01T10:46:00.289Z,98122.50
2022-10-01T10:48:33.752Z,98124.63
2022-10-01T10:51:07.246Z,98125.41
2022-10-01T10:53:45.405Z,98130.53
2022-10-01T10:56:23.436Z,98118.19
2022-10-01T10:58:55.352Z,98112.25
2022-10-01T11:01:32.901Z,98109.84
2022-10-01T11:04:04.599Z,98107.69
2022-10-01T11:06:35.403Z,98109.84
2022-10-01T11:09:23.290Z,98102.03
2022-10-01T11:12:08.574Z,98105.28
2022-10-01T11:14:56.585Z,98100.41
2022-10-01T11:18:19.330Z,98102.56
2022-10-01T11:21:31.838Z,98099.31
2022-10-01T11:24:54.041Z,98095.59
2022-10-01T11:27:36.350Z,98092.34
2022-10-01T11:31:06.547Z,98093.41
2022-10-01T11:33:50.697Z,98095.22
2022-10-01T11:37:49.681Z,98100.34
2022-10-01T11:40:29.379Z,98097.66
2022-10-01T11:43:09.480Z,98088.50
2022-10-01T11:45:47.522Z,98090.38
2022-10-01T11:48:30.460Z,98102.44
2022-10-01T11:57:23.439Z,98107.78
2022-10-01T12:01:27.638Z,98105.63
2022-10-01T12:04:39.367Z,98107.78
2022-10-01T12:07:18.551Z,98110.72
2022-10-01T12:14:24.367Z,98097.00
2022-10-01T12:17:30.555Z,98086.31
2022-10-01T12:20:32.872Z,98088.47
2022-10-01T12:23:25.266Z,98091.13
2022-10-01T12:27:10.866Z,98082.84
2022-10-01T12:40:07.951Z,98058.72
2022-10-01T12:43:18.703Z,98056.31
2022-10-01T12:46:02.568Z,98045.59
2022-10-01T12:49:02.450Z,98033.78
2022-10-01T12:51:43.327Z,98022.81
2022-10-01T12:55:08.861Z,98028.16
2022-10-01T12:57:56.994Z,98036.47
2022-10-01T13:00:31.413Z,98033.25
2022-10-01T13:03:39.580Z,98038.63
2022-10-01T13:06:32.369Z,98044.50
2022-10-01T13:09:31.780Z,98037.03
2022-10-01T13:12:27.481Z,98051.75
2022-10-01T13:14:59.431Z,98049.88
2022-10-01T13:18:04.259Z,98054.69
2022-10-01T13:20:46.371Z,98052.56
2022-10-01T13:23:30.878Z,98060.88
2022-10-01T13:26:46.662Z,98065.97
2022-10-01T13:29:55.722Z,98062.75
2022-10-01T13:32:37.542Z,98053.38
2022-10-01T13:35:45.917Z,98051.22
2022-10-01T13:38:30.513Z,98055.50
2022-10-01T13:41:03.251Z,98038.63
2022-10-01T13:43:34.967Z,98045.09
2022-10-01T13:46:10.688Z,98039.19
2022-10-01T13:48:49.612Z,98037.84
2022-10-01T13:51:21.824Z,98045.09
2022-10-01T13:54:00.808Z,98055.84
2022-10-01T13:56:35.414Z,98052.34
2022-10-01T13:59:33.737Z,98055.84
2022-10-01T14:02:03.990Z,98058.28
2022-10-01T14:04:41.991Z,98055.06
2022-10-01T14:07:22.068Z,98058.56
2022-10-01T14:09:55.692Z,98063.94
2022-10-01T14:12:50.202Z,98061.78
2022-10-01T14:15:52.215Z,98064.19
2022-10-01T14:18:25.903Z,98060.44
2022-10-01T14:21:14.208Z,98067.16
2022-10-01T14:23:59.414Z,98061.81
2022-10-01T14:26:43.771Z,98057.50
2022-10-01T14:29:33.685Z,98053.22
2022-10-01T14:32:18.829Z,98058.06
2022-10-01T14:35:03.672Z,98049.97
2022-10-01T14:38:02.197Z,98050.25
2022-10-01T14:40:41.099Z,98051.63
2022-10-01T14:43:21.843Z,98053.75
2022-10-01T14:45:58.767Z,98057.50
2022-10-01T14:48:32.151Z,98055.63
2022-10-01T14:51:31.287Z,98055.09
2022-10-01T14:54:03.646Z,98056.44
2022-10-01T14:56:39.086Z,98053.75
2022-10-01T14:59:29.558Z,98039.81
2022-10-01T15:02:17.435Z,98052.13
2022-10-01T15:04:53.373Z,98052.13
2022-10-01T15:07:24.243Z,98050.53
2022-10-01T15:09:54.407Z,98051.84
2022-10-01T15:12:25.020Z,98044.88
2022-10-01T15:14:56.960Z,98052.94
2022-10-01T15:17:28.652Z,98047.31
2022-10-01T15:19:58.712Z,98051.06
2022-10-01T15:22:31.384Z,98058.03
2022-10-01T15:25:03.585Z,98046.50
2022-10-01T15:27:34.229Z,98045.94
2022-10-01T15:30:15.393Z,98045.69
2022-10-01T15:32:45.448Z,98051.59
2022-10-01T15:35:19.018Z,98051.59
2022-10-01T15:37:50.509Z,98050.53
2022-10-01T15:40:30.988Z,98052.13
2022-10-01T15:43:26.704Z,98048.09
2022-10-01T15:46:22.928Z,98053.72
2022-10-01T15:49:13.786Z,98064.72
2022-10-01T15:52:12.401Z,98063.09
2022-10-01T15:54:44.363Z,98069.53
2022-10-01T15:57:22.034Z,98064.91
2022-10-01T15:59:55.441Z,98065.97
2022-10-01T16:02:28.389Z,98067.56
2022-10-01T16:05:06.844Z,98065.69
2022-10-01T16:07:35.706Z,98072.38
2022-10-01T16:10:27.304Z,98063.50
2022-10-01T16:12:57.410Z,98075.03
2022-10-01T16:15:29.150Z,98075.31
2022-10-01T16:18:02.607Z,98084.41
2022-10-01T16:20:45.595Z,98091.13
2022-10-01T16:23:37.932Z,98107.44
2022-10-01T16:26:28.170Z,98095.34
2022-10-01T16:29:01.607Z,98096.38
2022-10-01T16:31:32.095Z,98092.13
2022-10-01T16:34:02.836Z,98103.63
2022-10-01T16:36:34.433Z,98103.13
2022-10-01T16:39:03.670Z,98105.00
2022-10-01T16:41:34.642Z,98114.66
2022-10-01T16:44:07.174Z,98109.81
2022-10-01T16:46:36.832Z,98105.25
2022-10-01T16:49:15.270Z,98114.66
2022-10-01T16:51:44.290Z,98122.97
2022-10-01T16:54:23.608Z,98125.88
2022-10-01T16:56:55.194Z,98129.13
2022-10-01T16:59:25.486Z,98122.13
2022-10-01T17:01:56.456Z,98124.00
2022-10-01T17:04:28.367Z,98133.41
2022-10-01T17:06:59.210Z,98137.16
2022-10-01T17:09:28.202Z,98137.16
2022-10-01T17:12:00.791Z,98145.47
2022-10-01T17:14:30.917Z,98143.81
2022-10-01T17:16:59.703Z,98137.09
2022-10-01T17:19:28.603Z,98147.22
2022-10-01T17:21:57.549Z,98145.09
2022-10-01T17:24:26.771Z,98152.06
2022-10-01T17:26:55.737Z,98159.84
2022-10-01T17:29:24.498Z,98156.38
2022-10-01T17:31:58.022Z,98156.59
2022-10-01T17:34:27.164Z,98155.81
2022-10-01T17:36:56.855Z,98150.97
2022-10-01T17:39:26.971Z,98157.41
2022-10-01T17:41:55.995Z,98157.94
2022-10-01T17:44:25.670Z,98163.84
2022-10-01T17:46:59.914Z,98166.00
2022-10-01T17:49:29.454Z,98167.63
2022-10-01T17:51:59.083Z,98167.63
2022-10-01T17:54:30.843Z,98170.03
2022-10-01T17:57:00.234Z,98175.72
2022-10-01T17:59:30.058Z,98174.09
2022-10-01T18:02:01.459Z,98178.44
2022-10-01T18:04:31.137Z,98184.28
2022-10-01T18:07:01.616Z,98176.22
2022-10-01T18:09:31.512Z,98186.44
2022-10-01T18:12:02.345Z,98196.03
2022-10-01T18:14:32.766Z,98194.44
2022-10-01T18:17:04.090Z,98196.56
2022-10-01T18:19:57.592Z,98199.75
2022-10-01T18:22:27.548Z,98210.22
2022-10-01T18:24:59.368Z,98203.78
2022-10-01T18:27:30.299Z,98197.59
2022-10-01T18:30:00.759Z,98211.00
2022-10-01T18:32:44.286Z,98210.44
2022-10-01T18:35:31.292Z,98209.38
2022-10-01T18:38:11.170Z,98206.44
2022-10-01T18:40:45.701Z,98213.88
2022-10-01T18:43:23.466Z,98214.19
2022-10-01T18:46:16.230Z,98205.06
2022-10-01T18:49:27.400Z,98205.59
2022-10-01T18:52:21.318Z,98209.63
2022-10-01T18:55:52.773Z,98209.13
2022-10-01T18:59:10.690Z,98220.13
2022-10-01T19:01:55.602Z,98225.50
2022-10-01T19:04:54.513Z,98235.19
2022-10-01T19:07:41.175Z,98231.97
2022-10-01T19:10:24.301Z,98236.00
2022-10-01T19:13:14.374Z,98229.88
2022-10-01T19:16:01.874Z,98236.28
2022-10-01T19:18:57.425Z,98240.59
2022-10-01T19:21:43.295Z,98239.00
2022-10-01T19:24:35.024Z,98244.88
2022-10-01T19:27:21.306Z,98246.22
2022-10-01T19:30:10.807Z,98255.88
2022-10-01T19:32:48.323Z,98255.31
2022-10-01T19:35:23.987Z,98262.78
2022-10-01T19:37:59.831Z,98263.53
2022-10-01T19:40:36.656Z,98258.97
2022-10-01T19:43:23.840Z,98264.34
2022-10-01T19:46:02.090Z,98265.16
2022-10-01T19:48:43.239Z,98274.53
2022-10-01T19:51:20.638Z,98281.22
2022-10-01T19:54:00.437Z,98286.59
2022-10-01T19:56:33.184Z,98293.78
2022-10-01T19:59:09.061Z,98300.69
2022-10-01T20:01:46.612Z,98311.69
2022-10-01T20:04:32.447Z,98304.97
2022-10-01T20:07:11.326Z,98305.81
2022-10-01T20:09:49.146Z,98311.69
2022-10-01T20:12:34.146Z,98319.16
2022-10-01T20:15:20.201Z,98332.50
2022-10-01T20:18:13.296Z,98323.94
2022-10-01T20:21:02.511Z,98336.81
2022-10-01T20:23:45.109Z,98338.94
2022-10-01T20:26:28.297Z,98347.19
2022-10-01T20:29:36.845Z,98354.50
2022-10-01T20:32:20.374Z,98358.50
2022-10-01T20:35:12.758Z,98360.91
2022-10-01T20:38:08.339Z,98364.13
2022-10-01T20:40:45.586Z,98371.69
2022-10-01T20:43:30.703Z,98374.66
2022-10-01T20:46:08.159Z,98381.34
2022-10-01T20:48:44.777Z,98385.09
2022-10-01T20:51:24.268Z,98390.38
2022-10-01T20:54:00.531Z,98397.00
2022-10-01T20:56:36.090Z,98399.13
2022-10-01T20:59:18.152Z,98403.72
2022-10-01T21:02:02.420Z,98412.56
2022-10-01T21:04:38.851Z,98410.41
2022-10-01T21:07:25.363Z,98409.03
2022-10-01T21:09:58.953Z,98418.44
2022-10-01T21:12:37.282Z,98417.63
2022-10-01T21:15:16.473Z,98421.38
2022-10-01T21:17:56.842Z,98421.59
2022-10-01T21:20:45.522Z,98435.81
2022-10-01T21:23:35.184Z,98436.38
2022-10-01T21:26:19.429Z,98443.84
2022-10-01T21:29:30.492Z,98460.38
2022-10-01T21:32:20.315Z,98458.75
2022-10-01T21:35:10.270Z,98460.69
2022-10-01T21:37:57.649Z,98459.88
2022-10-01T21:40:49.383Z,98471.69
2022-10-01T21:43:40.620Z,98476.81
2022-10-01T21:46:22.622Z,98475.78
2022-10-01T21:49:05.040Z,98486.16
2022-10-01T21:51:53.468Z,98491.03
2022-10-01T21:55:03.352Z,98494.75
2022-10-01T21:58:09.401Z,98499.28
2022-10-01T22:00:38.662Z,98500.63
2022-10-01T22:03:19.822Z,98500.63
2022-10-01T22:06:03.580Z,98507.34
2022-10-01T22:09:01.857Z,98510.53
2022-10-01T22:11:36.306Z,98512.94
2022-10-01T22:14:16.091Z,98519.44
2022-10-01T22:16:54.445Z,98524.00
2022-10-01T22:19:29.327Z,98519.44
2022-10-01T22:22:09.580Z,98523.19
2022-10-01T22:24:45.342Z,98535.44
2022-10-01T22:27:21.438Z,98535.44
2022-10-01T22:29:58.105Z,98533.91
2022-10-01T22:32:35.120Z,98540.88
2022-10-01T22:35:13.767Z,98548.66
2022-10-01T22:37:52.191Z,98554.75
2022-10-01T22:40:29.570Z,98570.81
2022-10-01T22:43:07.006Z,98566.06
2022-10-01T22:45:54.811Z,98572.44
2022-10-01T22:48:49.742Z,98575.06
2022-10-01T22:51:39.190Z,98579.84
2022-10-01T22:54:50.130Z,98584.72
2022-10-01T22:57:46.129Z,98580.44
2022-10-01T23:00:17.574Z,98576.63
2022-10-01T23:03:03.276Z,98582.28
2022-10-01T23:05:53.315Z,98593.81
2022-10-01T23:08:33.926Z,98597.63
2022-10-01T23:11:22.555Z,98598.69
2022-10-01T23:14:08.134Z,98601.91
2022-10-01T23:16:51.931Z,98605.66
2022-10-01T23:19:41.043Z,98602.41
2022-10-01T23:22:22.488Z,98611.59
2022-10-01T23:25:14.804Z,98614.28
2022-10-01T23:28:01.607Z,98613.44
2022-10-01T23:30:48.630Z,98619.63
2022-10-01T23:33:42.962Z,98621.16
2022-10-01T23:36:32.090Z,98630.75
2022-10-01T23:39:41.049Z,98629.63
2022-10-01T23:42:29.601Z,98643.59
2022-10-01T23:45:17.339Z,98647.31
2022-10-01T23:47:58.617Z,98654.22
2022-10-01T23:50:36.280Z,98653.97
2022-10-01T23:53:16.110Z,98658.50
2022-10-01T23:56:10.851Z,98665.72
2022-10-01T23:58:47.615Z,98664.44
